sensor_id;sensor_type;location;lat;lon;timestamp;temperature;humidity
18444;DHT22;9350;53.176;8.194;2023-07-30T00:02:15;18.00;99.90
18444;DHT22;9350;53.176;8.194;2023-07-30T00:04:42;17.90;99.90
18444;DHT22;9350;53.176;8.194;2023-07-30T00:07:09;18.00;99.90
18444;DHT22;9350;53.176;8.194;2023-07-30T00:09:36;17.90;99.90
18444;DHT22;9350;53.176;8.194;2023-07-30T00:12:03;17.90;99.90
18444;DHT22;9350;53.176;8.194;2023-07-30T00:14:30;17.90;99.90
18444;DHT22;9350;53.176;8.194;2023-07-30T00:16:58;17.90;99.90
18444;DHT22;9350;53.176;8.194;2023-07-30T00:19:25;17.90;99.90
18444;DHT22;9350;53.176;8.194;2023-07-30T00:22:25;17.90;99.90
18444;DHT22;9350;53.176;8.194;2023-07-30T00:25:14;17.90;99.90
18444;DHT22;9350;53.176;8.194;2023-07-30T00:27:40;17.90;99.90
18444;DHT22;9350;53.176;8.194;2023-07-30T00:30:08;18.00;99.90
18444;DHT22;9350;53.176;8.194;2023-07-30T00:32:36;18.00;99.90
18444;DHT22;9350;53.176;8.194;2023-07-30T00:35:07;18.00;99.90
18444;DHT22;9350;53.176;8.194;2023-07-30T00:37:34;18.00;99.90
18444;DHT22;9350;53.176;8.194;2023-07-30T00:40:01;18.00;99.90
18444;DHT22;9350;53.176;8.194;2023-07-30T00:42:28;18.00;99.90
18444;DHT22;9350;53.176;8.194;2023-07-30T00:44:55;17.90;99.90
18444;DHT22;9350;53.176;8.194;2023-07-30T00:47:22;17.90;99.90
18444;DHT22;9350;53.176;8.194;2023-07-30T00:49:50;17.90;99.90
18444;DHT22;9350;53.176;8.194;2023-07-30T00:52:19;17.90;99.90
18444;DHT22;9350;53.176;8.194;2023-07-30T00:54:47;17.90;99.90
18444;DHT22;9350;53.176;8.194;2023-07-30T00:57:15;17.90;99.90
18444;DHT22;9350;53.176;8.194;2023-07-30T00:59:42;17.80;99.90
18444;DHT22;9350;53.176;8.194;2023-07-30T01:02:09;17.80;99.90
18444;DHT22;9350;53.176;8.194;2023-07-30T01:04:36;17.80;99.90
18444;DHT22;9350;53.176;8.194;2023-07-30T01:07:06;17.70;99.90
18444;DHT22;9350;53.176;8.194;2023-07-30T01:09:33;17.70;99.90
18444;DHT22;9350;53.176;8.194;2023-07-30T01:12:00;17.70;99.90
18444;DHT22;9350;53.176;8.194;2023-07-30T01:14:28;17.60;99.90
18444;DHT22;9350;53.176;8.194;2023-07-30T01:16:55;17.60;99.90
18444;DHT22;9350;53.176;8.194;2023-07-30T01:19:22;17.60;99.90
18444;DHT22;9350;53.176;8.194;2023-07-30T01:21:50;17.60;99.90
18444;DHT22;9350;53.176;8.194;2023-07-30T01:24:17;17.50;99.90
18444;DHT22;9350;53.176;8.194;2023-07-30T01:26:44;17.50;99.90
18444;DHT22;9350;53.176;8.194;2023-07-30T01:29:16;17.40;99.90
18444;DHT22;9350;53.176;8.194;2023-07-30T01:31:47;17.40;99.90
18444;DHT22;9350;53.176;8.194;2023-07-30T01:34:19;17.40;99.90
18444;DHT22;9350;53.176;8.194;2023-07-30T01:36:47;17.40;99.90
18444;DHT22;9350;53.176;8.194;2023-07-30T01:39:16;17.40;99.90
18444;DHT22;9350;53.176;8.194;2023-07-30T01:41:43;17.30;99.90
18444;DHT22;9350;53.176;8.194;2023-07-30T01:44:10;17.30;99.90
18444;DHT22;9350;53.176;8.194;2023-07-30T01:46:37;17.20;99.90
18444;DHT22;9350;53.176;8.194;2023-07-30T01:49:03;17.20;99.90
18444;DHT22;9350;53.176;8.194;2023-07-30T01:51:30;17.20;99.90
18444;DHT22;9350;53.176;8.194;2023-07-30T01:53:57;17.30;99.90
18444;DHT22;9350;53.176;8.194;2023-07-30T01:56:25;17.20;99.90
18444;DHT22;9350;53.176;8.194;2023-07-30T01:58:52;17.20;99.90
18444;DHT22;9350;53.176;8.194;2023-07-30T02:01:18;17.30;99.90
18444;DHT22;9350;53.176;8.194;2023-07-30T02:03:45;17.30;99.90
18444;DHT22;9350;53.176;8.194;2023-07-30T02:06:12;17.30;99.90
18444;DHT22;9350;53.176;8.194;2023-07-30T02:08:39;17.30;99.90
18444;DHT22;9350;53.176;8.194;2023-07-30T02:11:05;17.30;99.90
18444;DHT22;9350;53.176;8.194;2023-07-30T02:13:33;17.10;99.90
18444;DHT22;9350;53.176;8.194;2023-07-30T02:16:00;17.10;99.90
18444;DHT22;9350;53.176;8.194;2023-07-30T02:18:27;17.10;99.90
18444;DHT22;9350;53.176;8.194;2023-07-30T02:20:53;17.00;99.90
18444;DHT22;9350;53.176;8.194;2023-07-30T02:23:20;17.10;99.90
18444;DHT22;9350;53.176;8.194;2023-07-30T02:25:47;17.10;99.90
18444;DHT22;9350;53.176;8.194;2023-07-30T02:28:13;17.10;99.90
18444;DHT22;9350;53.176;8.194;2023-07-30T02:30:41;17.00;99.90
18444;DHT22;9350;53.176;8.194;2023-07-30T02:33:08;17.10;99.90
18444;DHT22;9350;53.176;8.194;2023-07-30T02:35:35;17.00;99.90
18444;DHT22;9350;53.176;8.194;2023-07-30T02:38:02;17.10;99.90
18444;DHT22;9350;53.176;8.194;2023-07-30T02:40:28;17.00;99.90
18444;DHT22;9350;53.176;8.194;2023-07-30T02:42:56;17.10;99.90
18444;DHT22;9350;53.176;8.194;2023-07-30T02:45:23;17.10;99.90
18444;DHT22;9350;53.176;8.194;2023-07-30T02:47:51;17.10;99.90
18444;DHT22;9350;53.176;8.194;2023-07-30T02:50:18;17.10;99.90
18444;DHT22;9350;53.176;8.194;2023-07-30T02:52:44;17.00;99.90
18444;DHT22;9350;53.176;8.194;2023-07-30T02:55:11;17.00;99.90
18444;DHT22;9350;53.176;8.194;2023-07-30T02:57:38;17.00;99.90
18444;DHT22;9350;53.176;8.194;2023-07-30T03:00:06;17.00;99.90
18444;DHT22;9350;53.176;8.194;2023-07-30T03:02:34;17.00;99.90
18444;DHT22;9350;53.176;8.194;2023-07-30T03:05:02;17.00;99.90
18444;DHT22;9350;53.176;8.194;2023-07-30T03:07:28;17.00;99.90
18444;DHT22;9350;53.176;8.194;2023-07-30T03:09:55;17.00;99.90
18444;DHT22;9350;53.176;8.194;2023-07-30T03:12:22;17.00;99.90
18444;DHT22;9350;53.176;8.194;2023-07-30T03:14:49;17.00;99.90
18444;DHT22;9350;53.176;8.194;2023-07-30T03:17:16;17.00;99.90
18444;DHT22;9350;53.176;8.194;2023-07-30T03:19:42;16.90;99.90
18444;DHT22;9350;53.176;8.194;2023-07-30T03:22:10;17.00;99.90
18444;DHT22;9350;53.176;8.194;2023-07-30T03:24:37;17.00;99.90
18444;DHT22;9350;53.176;8.194;2023-07-30T03:27:05;17.00;99.90
18444;DHT22;9350;53.176;8.194;2023-07-30T03:29:32;17.00;99.90
18444;DHT22;9350;53.176;8.194;2023-07-30T03:31:58;16.90;99.90
18444;DHT22;9350;53.176;8.194;2023-07-30T03:34:25;16.90;99.90
18444;DHT22;9350;53.176;8.194;2023-07-30T03:36:52;17.00;99.90
18444;DHT22;9350;53.176;8.194;2023-07-30T03:39:20;16.90;99.90
18444;DHT22;9350;53.176;8.194;2023-07-30T03:41:46;16.90;99.90
18444;DHT22;9350;53.176;8.194;2023-07-30T03:44:13;16.90;99.90
18444;DHT22;9350;53.176;8.194;2023-07-30T03:46:40;16.90;99.90
18444;DHT22;9350;53.176;8.194;2023-07-30T03:49:06;16.90;99.90
18444;DHT22;9350;53.176;8.194;2023-07-30T03:51:34;16.90;99.90
18444;DHT22;9350;53.176;8.194;2023-07-30T03:54:00;16.90;99.90
18444;DHT22;9350;53.176;8.194;2023-07-30T03:56:28;16.80;99.90
18444;DHT22;9350;53.176;8.194;2023-07-30T03:58:55;16.90;99.90
18444;DHT22;9350;53.176;8.194;2023-07-30T04:01:22;16.90;99.90
18444;DHT22;9350;53.176;8.194;2023-07-30T04:03:49;16.90;99.90
18444;DHT22;9350;53.176;8.194;2023-07-30T04:06:15;17.00;99.90
18444;DHT22;9350;53.176;8.194;2023-07-30T04:08:42;17.00;99.90
18444;DHT22;9350;53.176;8.194;2023-07-30T04:11:09;17.00;99.90
18444;DHT22;9350;53.176;8.194;2023-07-30T04:13:37;17.00;99.90
18444;DHT22;9350;53.176;8.194;2023-07-30T04:16:04;16.90;99.90
18444;DHT22;9350;53.176;8.194;2023-07-30T04:18:30;16.90;99.90
18444;DHT22;9350;53.176;8.194;2023-07-30T04:20:57;16.90;99.90
18444;DHT22;9350;53.176;8.194;2023-07-30T04:23:24;17.00;99.90
18444;DHT22;9350;53.176;8.194;2023-07-30T04:25:51;16.90;99.90
18444;DHT22;9350;53.176;8.194;2023-07-30T04:28:18;16.90;99.90
18444;DHT22;9350;53.176;8.194;2023-07-30T04:30:46;16.90;99.90
18444;DHT22;9350;53.176;8.194;2023-07-30T04:33:13;16.90;99.90
18444;DHT22;9350;53.176;8.194;2023-07-30T04:35:40;16.90;99.90
18444;DHT22;9350;53.176;8.194;2023-07-30T04:38:06;16.80;99.90
18444;DHT22;9350;53.176;8.194;2023-07-30T04:40:33;16.80;99.90
18444;DHT22;9350;53.176;8.194;2023-07-30T04:43:00;16.80;99.90
18444;DHT22;9350;53.176;8.194;2023-07-30T04:45:26;16.80;99.90
18444;DHT22;9350;53.176;8.194;2023-07-30T04:47:54;16.90;99.90
18444;DHT22;9350;53.176;8.194;2023-07-30T04:50:21;16.80;99.90
18444;DHT22;9350;53.176;8.194;2023-07-30T04:52:48;16.80;99.90
18444;DHT22;9350;53.176;8.194;2023-07-30T04:55:15;16.90;99.90
18444;DHT22;9350;53.176;8.194;2023-07-30T04:57:41;16.80;99.90
18444;DHT22;9350;53.176;8.194;2023-07-30T05:00:09;16.80;99.90
18444;DHT22;9350;53.176;8.194;2023-07-30T05:02:36;16.90;99.90
18444;DHT22;9350;53.176;8.194;2023-07-30T05:05:05;16.90;99.90
18444;DHT22;9350;53.176;8.194;2023-07-30T05:07:31;16.90;99.90
18444;DHT22;9350;53.176;8.194;2023-07-30T05:09:58;16.90;99.90
18444;DHT22;9350;53.176;8.194;2023-07-30T05:12:25;17.00;99.90
18444;DHT22;9350;53.176;8.194;2023-07-30T05:14:52;16.90;99.90
18444;DHT22;9350;53.176;8.194;2023-07-30T05:17:18;16.90;99.90
18444;DHT22;9350;53.176;8.194;2023-07-30T05:19:45;16.90;99.90
18444;DHT22;9350;53.176;8.194;2023-07-30T05:22:13;17.00;99.90
18444;DHT22;9350;53.176;8.194;2023-07-30T05:24:40;17.00;99.90
18444;DHT22;9350;53.176;8.194;2023-07-30T05:27:07;17.00;99.90
18444;DHT22;9350;53.176;8.194;2023-07-30T05:29:33;17.10;99.90
18444;DHT22;9350;53.176;8.194;2023-07-30T05:32:00;17.10;99.90
18444;DHT22;9350;53.176;8.194;2023-07-30T05:34:27;17.10;99.90
18444;DHT22;9350;53.176;8.194;2023-07-30T05:36:54;17.20;99.90
18444;DHT22;9350;53.176;8.194;2023-07-30T05:39:22;17.20;99.90
18444;DHT22;9350;53.176;8.194;2023-07-30T05:41:48;17.10;99.90
18444;DHT22;9350;53.176;8.194;2023-07-30T05:44:15;17.20;99.90
18444;DHT22;9350;53.176;8.194;2023-07-30T05:46:42;17.20;99.90
18444;DHT22;9350;53.176;8.194;2023-07-30T05:49:08;17.10;99.90
18444;DHT22;9350;53.176;8.194;2023-07-30T05:51:36;17.10;99.90
18444;DHT22;9350;53.176;8.194;2023-07-30T05:54:03;17.10;99.90
18444;DHT22;9350;53.176;8.194;2023-07-30T05:56:32;17.10;99.90
18444;DHT22;9350;53.176;8.194;2023-07-30T05:58:58;17.20;99.90
18444;DHT22;9350;53.176;8.194;2023-07-30T06:01:24;17.30;99.90
18444;DHT22;9350;53.176;8.194;2023-07-30T06:03:51;17.30;99.90
18444;DHT22;9350;53.176;8.194;2023-07-30T06:06:17;17.30;99.90
18444;DHT22;9350;53.176;8.194;2023-07-30T06:08:52;17.40;99.90
18444;DHT22;9350;53.176;8.194;2023-07-30T06:11:18;17.40;99.90
18444;DHT22;9350;53.176;8.194;2023-07-30T06:13:46;17.50;99.90
18444;DHT22;9350;53.176;8.194;2023-07-30T06:16:13;17.50;99.90
18444;DHT22;9350;53.176;8.194;2023-07-30T06:18:40;17.60;99.90
18444;DHT22;9350;53.176;8.194;2023-07-30T06:21:07;17.60;99.90
18444;DHT22;9350;53.176;8.194;2023-07-30T06:23:33;17.60;99.90
18444;DHT22;9350;53.176;8.194;2023-07-30T06:26:00;17.50;99.90
18444;DHT22;9350;53.176;8.194;2023-07-30T06:28:27;17.60;99.90
18444;DHT22;9350;53.176;8.194;2023-07-30T06:30:55;17.70;99.90
18444;DHT22;9350;53.176;8.194;2023-07-30T06:33:21;17.70;99.90
18444;DHT22;9350;53.176;8.194;2023-07-30T06:35:48;17.80;99.90
18444;DHT22;9350;53.176;8.194;2023-07-30T06:38:15;17.80;99.90
18444;DHT22;9350;53.176;8.194;2023-07-30T06:40:41;17.80;99.90
18444;DHT22;9350;53.176;8.194;2023-07-30T06:43:08;17.80;99.90
18444;DHT22;9350;53.176;8.194;2023-07-30T06:45:35;17.70;99.90
18444;DHT22;9350;53.176;8.194;2023-07-30T06:48:03;17.80;99.90
18444;DHT22;9350;53.176;8.194;2023-07-30T06:50:30;17.90;99.90
18444;DHT22;9350;53.176;8.194;2023-07-30T06:52:56;17.90;99.90
18444;DHT22;9350;53.176;8.194;2023-07-30T06:55:23;17.90;99.90
18444;DHT22;9350;53.176;8.194;2023-07-30T06:57:50;17.90;99.90
18444;DHT22;9350;53.176;8.194;2023-07-30T07:00:16;17.90;99.90
18444;DHT22;9350;53.176;8.194;2023-07-30T07:02:47;17.90;99.90
18444;DHT22;9350;53.176;8.194;2023-07-30T07:05:15;17.90;99.90
18444;DHT22;9350;53.176;8.194;2023-07-30T07:07:42;17.90;99.90
18444;DHT22;9350;53.176;8.194;2023-07-30T07:10:09;17.90;99.90
18444;DHT22;9350;53.176;8.194;2023-07-30T07:12:36;18.00;99.90
18444;DHT22;9350;53.176;8.194;2023-07-30T07:15:03;18.00;99.90
18444;DHT22;9350;53.176;8.194;2023-07-30T07:17:30;18.00;99.90
18444;DHT22;9350;53.176;8.194;2023-07-30T07:19:57;18.10;99.90
18444;DHT22;9350;53.176;8.194;2023-07-30T07:22:25;18.20;99.90
18444;DHT22;9350;53.176;8.194;2023-07-30T07:24:52;18.10;99.90
18444;DHT22;9350;53.176;8.194;2023-07-30T07:27:18;18.20;99.90
18444;DHT22;9350;53.176;8.194;2023-07-30T07:29:46;18.30;99.90
18444;DHT22;9350;53.176;8.194;2023-07-30T07:32:12;18.30;99.90
18444;DHT22;9350;53.176;8.194;2023-07-30T07:34:39;18.40;99.90
18444;DHT22;9350;53.176;8.194;2023-07-30T07:37:06;18.40;99.90
18444;DHT22;9350;53.176;8.194;2023-07-30T07:39:34;18.50;99.90
18444;DHT22;9350;53.176;8.194;2023-07-30T07:42:00;18.60;99.90
18444;DHT22;9350;53.176;8.194;2023-07-30T07:44:27;18.60;99.90
18444;DHT22;9350;53.176;8.194;2023-07-30T07:46:54;18.60;99.90
18444;DHT22;9350;53.176;8.194;2023-07-30T07:49:20;18.70;99.90
18444;DHT22;9350;53.176;8.194;2023-07-30T07:51:47;18.70;99.90
18444;DHT22;9350;53.176;8.194;2023-07-30T07:54:14;18.70;99.90
18444;DHT22;9350;53.176;8.194;2023-07-30T07:56:42;18.70;99.90
18444;DHT22;9350;53.176;8.194;2023-07-30T07:59:08;18.70;99.90
18444;DHT22;9350;53.176;8.194;2023-07-30T08:01:35;18.80;99.90
18444;DHT22;9350;53.176;8.194;2023-07-30T08:04:02;18.80;99.90
18444;DHT22;9350;53.176;8.194;2023-07-30T08:06:29;18.80;99.90
18444;DHT22;9350;53.176;8.194;2023-07-30T08:08:56;18.70;99.90
18444;DHT22;9350;53.176;8.194;2023-07-30T08:11:22;18.70;99.90
18444;DHT22;9350;53.176;8.194;2023-07-30T08:13:50;18.60;99.90
18444;DHT22;9350;53.176;8.194;2023-07-30T08:16:17;18.70;99.90
18444;DHT22;9350;53.176;8.194;2023-07-30T08:18:44;18.60;99.90
18444;DHT22;9350;53.176;8.194;2023-07-30T08:21:10;18.60;99.90
18444;DHT22;9350;53.176;8.194;2023-07-30T08:23:37;18.60;99.90
18444;DHT22;9350;53.176;8.194;2023-07-30T08:26:04;18.60;99.90
18444;DHT22;9350;53.176;8.194;2023-07-30T08:28:30;18.50;99.90
18444;DHT22;9350;53.176;8.194;2023-07-30T08:31:01;18.60;99.90
18444;DHT22;9350;53.176;8.194;2023-07-30T08:33:28;18.50;99.90
18444;DHT22;9350;53.176;8.194;2023-07-30T08:35:55;18.60;99.90
18444;DHT22;9350;53.176;8.194;2023-07-30T08:38:22;18.60;99.90
18444;DHT22;9350;53.176;8.194;2023-07-30T08:40:49;18.60;99.90
18444;DHT22;9350;53.176;8.194;2023-07-30T08:43:17;18.60;99.90
18444;DHT22;9350;53.176;8.194;2023-07-30T08:45:44;18.60;99.90
18444;DHT22;9350;53.176;8.194;2023-07-30T08:48:12;18.60;99.90
18444;DHT22;9350;53.176;8.194;2023-07-30T08:50:39;18.70;99.90
18444;DHT22;9350;53.176;8.194;2023-07-30T08:53:07;18.60;99.90
18444;DHT22;9350;53.176;8.194;2023-07-30T08:55:34;18.70;99.90
18444;DHT22;9350;53.176;8.194;2023-07-30T08:58:04;18.80;99.90
18444;DHT22;9350;53.176;8.194;2023-07-30T09:00:34;18.80;99.90
18444;DHT22;9350;53.176;8.194;2023-07-30T09:03:03;18.90;99.90
18444;DHT22;9350;53.176;8.194;2023-07-30T09:05:31;19.00;99.90
18444;DHT22;9350;53.176;8.194;2023-07-30T09:07:58;19.10;99.90
18444;DHT22;9350;53.176;8.194;2023-07-30T09:10:26;19.10;99.90
18444;DHT22;9350;53.176;8.194;2023-07-30T09:12:53;19.10;99.90
18444;DHT22;9350;53.176;8.194;2023-07-30T09:15:29;19.20;99.90
18444;DHT22;9350;53.176;8.194;2023-07-30T09:17:56;19.20;99.90
18444;DHT22;9350;53.176;8.194;2023-07-30T09:20:23;19.20;99.90
18444;DHT22;9350;53.176;8.194;2023-07-30T09:22:51;19.30;99.90
18444;DHT22;9350;53.176;8.194;2023-07-30T09:25:18;19.30;99.90
18444;DHT22;9350;53.176;8.194;2023-07-30T09:27:50;19.30;99.90
18444;DHT22;9350;53.176;8.194;2023-07-30T09:30:22;19.30;99.90
18444;DHT22;9350;53.176;8.194;2023-07-30T09:32:51;19.30;99.90
18444;DHT22;9350;53.176;8.194;2023-07-30T09:35:18;19.30;99.90
18444;DHT22;9350;53.176;8.194;2023-07-30T09:37:46;19.40;99.90
18444;DHT22;9350;53.176;8.194;2023-07-30T09:40:15;19.30;99.90
18444;DHT22;9350;53.176;8.194;2023-07-30T09:42:45;19.20;99.90
18444;DHT22;9350;53.176;8.194;2023-07-30T09:45:17;19.20;99.90
18444;DHT22;9350;53.176;8.194;2023-07-30T09:47:48;19.30;99.90
18444;DHT22;9350;53.176;8.194;2023-07-30T09:50:15;19.40;99.90
18444;DHT22;9350;53.176;8.194;2023-07-30T09:52:42;19.60;99.90
18444;DHT22;9350;53.176;8.194;2023-07-30T09:55:10;19.80;99.90
18444;DHT22;9350;53.176;8.194;2023-07-30T09:57:38;19.90;99.90
18444;DHT22;9350;53.176;8.194;2023-07-30T10:00:06;20.00;99.90
18444;DHT22;9350;53.176;8.194;2023-07-30T10:02:37;20.00;99.90
18444;DHT22;9350;53.176;8.194;2023-07-30T10:05:08;20.10;99.90
18444;DHT22;9350;53.176;8.194;2023-07-30T10:07:39;20.10;99.90
18444;DHT22;9350;53.176;8.194;2023-07-30T10:10:09;20.10;99.90
18444;DHT22;9350;53.176;8.194;2023-07-30T10:12:38;20.00;99.90
18444;DHT22;9350;53.176;8.194;2023-07-30T10:15:07;20.10;99.90
18444;DHT22;9350;53.176;8.194;2023-07-30T10:17:34;20.10;99.90
18444;DHT22;9350;53.176;8.194;2023-07-30T10:20:22;19.90;99.90
18444;DHT22;9350;53.176;8.194;2023-07-30T10:22:52;19.80;99.90
18444;DHT22;9350;53.176;8.194;2023-07-30T10:25:21;19.80;99.90
18444;DHT22;9350;53.176;8.194;2023-07-30T10:27:50;19.80;99.90
18444;DHT22;9350;53.176;8.194;2023-07-30T10:30:18;19.70;99.90
18444;DHT22;9350;53.176;8.194;2023-07-30T10:33:01;19.70;99.90
18444;DHT22;9350;53.176;8.194;2023-07-30T10:35:36;19.70;99.90
18444;DHT22;9350;53.176;8.194;2023-07-30T10:38:13;19.70;99.90
18444;DHT22;9350;53.176;8.194;2023-07-30T10:40:40;19.70;99.90
18444;DHT22;9350;53.176;8.194;2023-07-30T10:43:15;19.90;99.90
18444;DHT22;9350;53.176;8.194;2023-07-30T10:45:48;20.10;99.90
18444;DHT22;9350;53.176;8.194;2023-07-30T10:48:15;20.20;99.90
18444;DHT22;9350;53.176;8.194;2023-07-30T10:50:42;20.30;99.90
18444;DHT22;9350;53.176;8.194;2023-07-30T10:53:08;20.30;99.90
18444;DHT22;9350;53.176;8.194;2023-07-30T10:55:35;20.20;99.90
18444;DHT22;9350;53.176;8.194;2023-07-30T10:58:03;20.10;99.90
18444;DHT22;9350;53.176;8.194;2023-07-30T11:00:32;20.00;99.90
18444;DHT22;9350;53.176;8.194;2023-07-30T11:02:58;19.80;99.90
18444;DHT22;9350;53.176;8.194;2023-07-30T11:05:25;19.60;99.90
18444;DHT22;9350;53.176;8.194;2023-07-30T11:07:52;19.40;99.90
18444;DHT22;9350;53.176;8.194;2023-07-30T11:10:19;19.10;99.90
18444;DHT22;9350;53.176;8.194;2023-07-30T11:12:48;18.90;99.90
18444;DHT22;9350;53.176;8.194;2023-07-30T11:15:15;18.80;99.90
18444;DHT22;9350;53.176;8.194;2023-07-30T11:17:43;18.60;99.90
18444;DHT22;9350;53.176;8.194;2023-07-30T11:20:22;18.50;99.90
18444;DHT22;9350;53.176;8.194;2023-07-30T11:22:49;18.40;99.90
18444;DHT22;9350;53.176;8.194;2023-07-30T11:25:19;18.20;99.90
18444;DHT22;9350;53.176;8.194;2023-07-30T11:27:46;18.00;99.90
18444;DHT22;9350;53.176;8.194;2023-07-30T11:30:13;17.50;99.90
18444;DHT22;9350;53.176;8.194;2023-07-30T11:32:41;17.20;99.90
18444;DHT22;9350;53.176;8.194;2023-07-30T11:35:09;17.10;99.90
18444;DHT22;9350;53.176;8.194;2023-07-30T11:37:36;17.00;99.90
18444;DHT22;9350;53.176;8.194;2023-07-30T11:40:07;16.80;99.90
18444;DHT22;9350;53.176;8.194;2023-07-30T11:42:34;16.70;99.90
18444;DHT22;9350;53.176;8.194;2023-07-30T11:45:19;16.60;99.90
18444;DHT22;9350;53.176;8.194;2023-07-30T11:47:46;16.60;99.90
18444;DHT22;9350;53.176;8.194;2023-07-30T11:50:14;16.70;99.90
18444;DHT22;9350;53.176;8.194;2023-07-30T11:52:54;16.80;99.90
18444;DHT22;9350;53.176;8.194;2023-07-30T11:55:21;16.90;99.90
18444;DHT22;9350;53.176;8.194;2023-07-30T11:57:49;17.00;99.90
18444;DHT22;9350;53.176;8.194;2023-07-30T12:00:20;17.00;99.90
18444;DHT22;9350;53.176;8.194;2023-07-30T12:02:47;17.00;99.90
18444;DHT22;9350;53.176;8.194;2023-07-30T12:05:16;17.10;99.90
18444;DHT22;9350;53.176;8.194;2023-07-30T12:07:44;17.20;99.90
18444;DHT22;9350;53.176;8.194;2023-07-30T12:10:13;17.10;99.90
18444;DHT22;9350;53.176;8.194;2023-07-30T12:12:43;17.30;99.90
18444;DHT22;9350;53.176;8.194;2023-07-30T12:15:11;17.50;99.90
18444;DHT22;9350;53.176;8.194;2023-07-30T12:17:38;17.60;99.90
18444;DHT22;9350;53.176;8.194;2023-07-30T12:20:06;17.70;99.90
18444;DHT22;9350;53.176;8.194;2023-07-30T12:22:34;17.80;99.90
18444;DHT22;9350;53.176;8.194;2023-07-30T12:25:02;17.80;99.90
18444;DHT22;9350;53.176;8.194;2023-07-30T12:27:29;17.80;99.90
18444;DHT22;9350;53.176;8.194;2023-07-30T12:29:56;17.80;99.90
18444;DHT22;9350;53.176;8.194;2023-07-30T12:32:23;17.80;99.90
18444;DHT22;9350;53.176;8.194;2023-07-30T12:34:53;17.70;99.90
18444;DHT22;9350;53.176;8.194;2023-07-30T12:37:20;17.70;99.90
18444;DHT22;9350;53.176;8.194;2023-07-30T12:39:48;17.80;99.90
18444;DHT22;9350;53.176;8.194;2023-07-30T12:42:14;17.80;99.90
18444;DHT22;9350;53.176;8.194;2023-07-30T12:44:41;18.00;99.90
18444;DHT22;9350;53.176;8.194;2023-07-30T12:47:08;18.10;99.90
18444;DHT22;9350;53.176;8.194;2023-07-30T12:49:34;18.20;99.90
18444;DHT22;9350;53.176;8.194;2023-07-30T12:52:01;18.40;99.90
18444;DHT22;9350;53.176;8.194;2023-07-30T12:54:28;18.50;99.90
18444;DHT22;9350;53.176;8.194;2023-07-30T12:56:56;18.60;99.90
18444;DHT22;9350;53.176;8.194;2023-07-30T12:59:23;18.80;99.90
18444;DHT22;9350;53.176;8.194;2023-07-30T13:01:49;18.90;99.90
18444;DHT22;9350;53.176;8.194;2023-07-30T13:04:16;19.00;99.90
18444;DHT22;9350;53.176;8.194;2023-07-30T13:06:43;19.10;99.90
18444;DHT22;9350;53.176;8.194;2023-07-30T13:09:10;19.20;99.90
18444;DHT22;9350;53.176;8.194;2023-07-30T13:11:37;19.30;99.90
18444;DHT22;9350;53.176;8.194;2023-07-30T13:14:05;19.40;99.90
18444;DHT22;9350;53.176;8.194;2023-07-30T13:16:31;19.50;99.90
18444;DHT22;9350;53.176;8.194;2023-07-30T13:18:58;19.50;99.90
18444;DHT22;9350;53.176;8.194;2023-07-30T13:21:25;19.60;99.90
18444;DHT22;9350;53.176;8.194;2023-07-30T13:23:51;19.70;99.90
18444;DHT22;9350;53.176;8.194;2023-07-30T13:26:18;19.90;99.90
18444;DHT22;9350;53.176;8.194;2023-07-30T13:28:45;20.00;99.90
18444;DHT22;9350;53.176;8.194;2023-07-30T13:31:13;20.00;99.90
18444;DHT22;9350;53.176;8.194;2023-07-30T13:33:39;19.80;99.90
18444;DHT22;9350;53.176;8.194;2023-07-30T13:36:07;19.80;99.90
18444;DHT22;9350;53.176;8.194;2023-07-30T13:38:34;19.60;99.90
18444;DHT22;9350;53.176;8.194;2023-07-30T13:41:00;19.60;99.90
18444;DHT22;9350;53.176;8.194;2023-07-30T13:43:28;19.50;99.90
18444;DHT22;9350;53.176;8.194;2023-07-30T13:45:54;19.50;99.90
18444;DHT22;9350;53.176;8.194;2023-07-30T13:48:23;19.50;99.90
18444;DHT22;9350;53.176;8.194;2023-07-30T13:50:50;19.40;99.90
18444;DHT22;9350;53.176;8.194;2023-07-30T13:53:17;19.30;99.90
18444;DHT22;9350;53.176;8.194;2023-07-30T13:55:44;19.00;99.90
18444;DHT22;9350;53.176;8.194;2023-07-30T13:58:10;18.90;99.90
18444;DHT22;9350;53.176;8.194;2023-07-30T14:00:40;18.60;99.90
18444;DHT22;9350;53.176;8.194;2023-07-30T14:03:07;18.10;99.90
18444;DHT22;9350;53.176;8.194;2023-07-30T14:05:35;18.00;99.90
18444;DHT22;9350;53.176;8.194;2023-07-30T14:08:01;17.80;99.90
18444;DHT22;9350;53.176;8.194;2023-07-30T14:10:28;17.80;99.90
18444;DHT22;9350;53.176;8.194;2023-07-30T14:12:55;18.00;99.90
18444;DHT22;9350;53.176;8.194;2023-07-30T14:15:21;18.00;99.90
18444;DHT22;9350;53.176;8.194;2023-07-30T14:17:48;18.00;99.90
18444;DHT22;9350;53.176;8.194;2023-07-30T14:20:16;18.10;99.90
18444;DHT22;9350;53.176;8.194;2023-07-30T14:22:44;18.30;99.90
18444;DHT22;9350;53.176;8.194;2023-07-30T14:25:11;18.30;99.90
18444;DHT22;9350;53.176;8.194;2023-07-30T14:27:37;18.50;99.90
18444;DHT22;9350;53.176;8.194;2023-07-30T14:30:05;18.50;99.90
18444;DHT22;9350;53.176;8.194;2023-07-30T14:32:32;18.60;99.90
18444;DHT22;9350;53.176;8.194;2023-07-30T14:34:59;18.70;99.90
18444;DHT22;9350;53.176;8.194;2023-07-30T14:37:25;18.60;99.90
18444;DHT22;9350;53.176;8.194;2023-07-30T14:39:53;18.70;99.90
18444;DHT22;9350;53.176;8.194;2023-07-30T14:42:20;18.70;99.90
18444;DHT22;9350;53.176;8.194;2023-07-30T14:44:47;18.70;99.90
18444;DHT22;9350;53.176;8.194;2023-07-30T14:47:13;18.90;99.90
18444;DHT22;9350;53.176;8.194;2023-07-30T14:49:40;18.90;99.90
18444;DHT22;9350;53.176;8.194;2023-07-30T14:52:07;18.80;99.90
18444;DHT22;9350;53.176;8.194;2023-07-30T14:54:34;18.90;99.90
18444;DHT22;9350;53.176;8.194;2023-07-30T14:57:02;18.80;99.90
18444;DHT22;9350;53.176;8.194;2023-07-30T14:59:29;18.90;99.90
18444;DHT22;9350;53.176;8.194;2023-07-30T15:01:56;18.90;99.90
18444;DHT22;9350;53.176;8.194;2023-07-30T15:04:22;19.00;99.90
18444;DHT22;9350;53.176;8.194;2023-07-30T15:06:49;19.20;99.90
18444;DHT22;9350;53.176;8.194;2023-07-30T15:09:16;19.30;99.90
18444;DHT22;9350;53.176;8.194;2023-07-30T15:11:42;19.30;99.90
18444;DHT22;9350;53.176;8.194;2023-07-30T15:14:10;19.20;99.90
18444;DHT22;9350;53.176;8.194;2023-07-30T15:16:37;19.20;99.90
18444;DHT22;9350;53.176;8.194;2023-07-30T15:19:04;19.20;99.90
18444;DHT22;9350;53.176;8.194;2023-07-30T15:21:31;19.30;99.90
18444;DHT22;9350;53.176;8.194;2023-07-30T15:23:57;19.30;99.90
18444;DHT22;9350;53.176;8.194;2023-07-30T15:26:24;19.40;99.90
18444;DHT22;9350;53.176;8.194;2023-07-30T15:28:51;19.50;99.90
18444;DHT22;9350;53.176;8.194;2023-07-30T15:31:19;19.60;99.90
18444;DHT22;9350;53.176;8.194;2023-07-30T15:33:46;19.60;99.90
18444;DHT22;9350;53.176;8.194;2023-07-30T15:36:12;19.70;99.90
18444;DHT22;9350;53.176;8.194;2023-07-30T15:38:40;19.70;99.90
18444;DHT22;9350;53.176;8.194;2023-07-30T15:41:07;19.80;99.90
18444;DHT22;9350;53.176;8.194;2023-07-30T15:43:34;19.80;99.90
18444;DHT22;9350;53.176;8.194;2023-07-30T15:46:00;19.80;99.90
18444;DHT22;9350;53.176;8.194;2023-07-30T15:48:29;19.80;99.90